Time;durP1;ratioP1;P1;durP2;ratioP2;P2;SDS_P1;SDS_P2;PMS_P1;PMS_P2;Temp;Humidity;BMP_temperature;BMP_pressure;BME280_temperature;BME280_humidity;BME280_pressure;Samples;Min_cycle;Max_cycle;Signal;HPM_P1;HPM_P2
2024/01/21 00:01:31;;;;;;;5.72;0.77;;;;;;;;;;4832707;29;20050;-80
2024/01/21 00:04:02;;;;;;;9.25;0.73;;;;;;;;;;4833120;29;20049;-76
2024/01/21 00:06:33;;;;;;;8.20;0.77;;;;;;;;;;4832314;29;20132;-80
2024/01/21 00:09:04;;;;;;;3.40;0.63;;;;;;;;;;4833004;29;20050;-76
2024/01/21 00:11:35;;;;;;;9.25;0.77;;;;;;;;;;4832767;29;20058;-77
2024/01/21 00:14:05;;;;;;;3.45;0.50;;;;;;;;;;4833202;29;20508;-76
2024/01/21 00:16:36;;;;;;;5.22;0.77;;;;;;;;;;4832170;29;20062;-76
2024/01/21 00:19:07;;;;;;;4.88;0.68;;;;;;;;;;4831005;29;20058;-78
2024/01/21 00:21:38;;;;;;;2.67;0.52;;;;;;;;;;4831880;29;20072;-75
2024/01/21 00:24:08;;;;;;;3.72;0.80;;;;;;;;;;4845716;29;20049;-76
2024/01/21 00:26:39;;;;;;;2.72;0.93;;;;;;;;;;4849951;29;20049;-74
2024/01/21 00:29:13;;;;;;;3.83;1.10;;;;;;;;;;4849535;29;20425;-75
2024/01/21 00:31:44;;;;;;;3.30;0.68;;;;;;;;;;4850465;29;20049;-76
2024/01/21 00:34:14;;;;;;;4.60;0.60;;;;;;;;;;4850116;29;20104;-75
2024/01/21 00:36:45;;;;;;;5.03;0.65;;;;;;;;;;4850865;29;20053;-76
2024/01/21 00:39:16;;;;;;;1.10;0.60;;;;;;;;;;4850510;29;20053;-75
2024/01/21 00:41:46;;;;;;;3.08;0.60;;;;;;;;;;4851037;29;20053;-74
2024/01/21 00:44:32;;;;;;;4.68;0.60;;;;;;;;;;4850744;29;20064;-75
2024/01/21 00:47:03;;;;;;;5.35;0.70;;;;;;;;;;4850691;29;20061;-77
2024/01/21 00:49:39;;;;;;;3.45;0.50;;;;;;;;;;4851579;29;20513;-75
2024/01/21 00:52:09;;;;;;;;;;;;;;;;;;4851095;29;20107;-75
2024/01/21 00:54:38;;;;;;;0.63;0.40;;;;;;;;;;4850906;29;19928;-76
2024/01/21 00:57:09;;;;;;;4.60;0.47;;;;;;;;;;4851133;29;20611;-74
2024/01/21 00:59:42;;;;;;;0.40;0.40;;;;;;;;;;4849988;29;20064;-75
2024/01/21 01:02:13;;;;;;;1.48;0.60;;;;;;;;;;4849046;29;20049;-76
2024/01/21 01:04:43;;;;;;;4.05;0.45;;;;;;;;;;4850719;29;20053;-74
2024/01/21 01:07:14;;;;;;;1.17;0.38;;;;;;;;;;4849958;29;20571;-76
2024/01/21 01:09:45;;;;;;;3.20;0.50;;;;;;;;;;4850414;29;20053;-75
2024/01/21 01:12:16;;;;;;;3.90;0.63;;;;;;;;;;4850235;29;20529;-74
2024/01/21 01:14:46;;;;;;;1.70;0.50;;;;;;;;;;4850340;29;20058;-75
2024/01/21 01:17:16;;;;;;;2.88;0.50;;;;;;;;;;4850565;29;20517;-74
2024/01/21 01:19:47;;;;;;;2.70;0.40;;;;;;;;;;4848665;29;20394;-75
2024/01/21 01:22:21;;;;;;;3.53;0.60;;;;;;;;;;4851130;29;20053;-74
2024/01/21 01:24:52;;;;;;;1.63;0.30;;;;;;;;;;4853817;29;20050;-76
2024/01/21 01:27:24;;;;;;;0.40;0.30;;;;;;;;;;4854300;29;20511;-75
2024/01/21 01:29:55;;;;;;;3.55;0.38;;;;;;;;;;4854343;29;20049;-78
2024/01/21 01:32:27;;;;;;;3.65;0.77;;;;;;;;;;4837076;29;20057;-76
2024/01/21 01:34:58;;;;;;;3.30;0.50;;;;;;;;;;4853928;29;20780;-73
2024/01/21 01:37:28;;;;;;;2.65;0.52;;;;;;;;;;4853228;29;20060;-76
2024/01/21 01:39:58;;;;;;;0.45;0.30;;;;;;;;;;4853594;29;20421;-74
2024/01/21 01:42:29;;;;;;;1.60;0.40;;;;;;;;;;4852598;29;20057;-76
2024/01/21 01:45:01;;;;;;;1.85;1.00;;;;;;;;;;4853592;29;20073;-78
2024/01/21 01:47:34;;;;;;;1.27;0.47;;;;;;;;;;4853681;29;20064;-76
2024/01/21 01:50:05;;;;;;;3.45;0.60;;;;;;;;;;4851887;29;20497;-77
2024/01/21 01:52:36;;;;;;;3.65;0.65;;;;;;;;;;4853191;29;20056;-78
2024/01/21 01:55:07;;;;;;;3.35;0.52;;;;;;;;;;4854012;29;20073;-77
2024/01/21 01:57:40;;;;;;;1.65;0.40;;;;;;;;;;4852837;29;20072;-77
2024/01/21 02:00:12;;;;;;;0.80;0.32;;;;;;;;;;4852922;29;20426;-78
2024/01/21 02:02:43;;;;;;;2.58;0.73;;;;;;;;;;4835077;29;20046;-77
2024/01/21 02:05:14;;;;;;;5.85;0.60;;;;;;;;;;4854073;29;20080;-77
2024/01/21 02:07:47;;;;;;;3.42;0.70;;;;;;;;;;4851089;29;20066;-77
2024/01/21 02:10:17;;;;;;;1.58;0.40;;;;;;;;;;4853203;29;20049;-77
2024/01/21 02:12:47;;;;;;;4.50;0.60;;;;;;;;;;4853115;29;20057;-77
2024/01/21 02:15:18;;;;;;;2.15;0.50;;;;;;;;;;4853165;29;20056;-77
2024/01/21 02:17:50;;;;;;;2.03;0.45;;;;;;;;;;4853070;29;20061;-76
2024/01/21 02:20:22;;;;;;;2.85;0.60;;;;;;;;;;4852870;29;20104;-77
2024/01/21 02:22:57;;;;;;;1.63;0.40;;;;;;;;;;4852890;29;20049;-77
2024/01/21 02:25:28;;;;;;;3.55;0.52;;;;;;;;;;4852619;29;20076;-78
2024/01/21 02:28:00;;;;;;;2.60;0.50;;;;;;;;;;4852869;29;20053;-77
2024/01/21 02:30:31;;;;;;;1.58;0.40;;;;;;;;;;4852939;29;20052;-77
2024/01/21 02:33:01;;;;;;;2.53;0.40;;;;;;;;;;4853388;29;20050;-77
2024/01/21 02:35:32;;;;;;;2.22;0.50;;;;;;;;;;4852570;29;20057;-77
2024/01/21 02:38:05;;;;;;;2.40;0.40;;;;;;;;;;4852896;29;20057;-78
2024/01/21 02:40:37;;;;;;;0.88;0.40;;;;;;;;;;4852761;29;20045;-78
2024/01/21 02:43:08;;;;;;;3.83;0.40;;;;;;;;;;4851991;29;21205;-77
2024/01/21 02:45:38;;;;;;;3.03;0.38;;;;;;;;;;4852503;29;20060;-78
2024/01/21 02:48:08;;;;;;;6.32;0.52;;;;;;;;;;4852705;29;20540;-77
2024/01/21 02:50:39;;;;;;;1.67;0.32;;;;;;;;;;4852483;29;20049;-78
2024/01/21 02:53:11;;;;;;;1.52;0.30;;;;;;;;;;4850989;29;20437;-77
2024/01/21 02:55:45;;;;;;;1.42;0.50;;;;;;;;;;4850939;29;20049;-77
2024/01/21 02:58:14;;;;;;;4.28;0.52;;;;;;;;;;4851865;29;20049;-78
2024/01/21 03:00:47;;;;;;;6.85;0.82;;;;;;;;;;4853162;29;20604;-77
2024/01/21 03:03:19;;;;;;;7.45;0.63;;;;;;;;;;4851829;29;20053;-78
2024/01/21 03:05:49;;;;;;;2.70;0.55;;;;;;;;;;4852650;29;20054;-77
2024/01/21 03:08:19;;;;;;;4.18;0.60;;;;;;;;;;4851979;29;20502;-76
2024/01/21 03:10:50;;;;;;;10.07;0.82;;;;;;;;;;4852720;29;20057;-77
2024/01/21 03:13:21;;;;;;;5.07;0.93;;;;;;;;;;4852071;29;20064;-77
2024/01/21 03:15:53;;;;;;;3.80;0.63;;;;;;;;;;4851710;29;20056;-77
2024/01/21 03:18:25;;;;;;;8.15;0.75;;;;;;;;;;4851757;29;20064;-77
2024/01/21 03:20:55;;;;;;;2.92;0.70;;;;;;;;;;4851859;29;20525;-77
2024/01/21 03:23:26;;;;;;;5.22;0.80;;;;;;;;;;4852160;29;20534;-77
2024/01/21 03:25:57;;;;;;;5.93;1.50;;;;;;;;;;4852417;29;20505;-77
2024/01/21 03:28:28;;;;;;;5.85;0.75;;;;;;;;;;4852105;29;20050;-76
2024/01/21 03:30:58;;;;;;;14.02;1.17;;;;;;;;;;4850577;29;20049;-77
2024/01/21 03:33:29;;;;;;;7.90;0.90;;;;;;;;;;4851741;29;20520;-77
2024/01/21 03:36:01;;;;;;;4.03;0.95;;;;;;;;;;4851602;29;20552;-78
2024/01/21 03:38:32;;;;;;;6.97;1.40;;;;;;;;;;4851346;29;20064;-76
2024/01/21 03:41:03;;;;;;;4.18;1.05;;;;;;;;;;4851958;29;20679;-77
2024/01/21 03:43:34;;;;;;;12.35;1.40;;;;;;;;;;4851304;29;20057;-78
2024/01/21 03:46:06;;;;;;;4.20;0.80;;;;;;;;;;4850875;29;20061;-76
2024/01/21 03:48:38;;;;;;;8.80;1.10;;;;;;;;;;4851739;29;20076;-77
2024/01/21 03:51:12;;;;;;;9.68;1.38;;;;;;;;;;4851276;29;20061;-77
2024/01/21 03:53:43;;;;;;;10.85;1.40;;;;;;;;;;4851080;29;20065;-76
2024/01/21 03:56:19;;;;;;;9.27;1.25;;;;;;;;;;4851094;29;20054;-77
2024/01/21 03:58:50;;;;;;;7.60;1.15;;;;;;;;;;4851640;29;20052;-77
2024/01/21 04:01:20;;;;;;;6.75;1.08;;;;;;;;;;4852055;29;20061;-77
2024/01/21 04:03:51;;;;;;;9.32;1.00;;;;;;;;;;4851802;29;20053;-77
2024/01/21 04:06:23;;;;;;;3.92;1.00;;;;;;;;;;4851586;29;20530;-76
2024/01/21 04:08:54;;;;;;;8.52;1.33;;;;;;;;;;4850991;29;20057;-76
2024/01/21 04:11:24;;;;;;;11.75;1.33;;;;;;;;;;4850953;29;20587;-77
2024/01/21 04:13:54;;;;;;;14.25;1.65;;;;;;;;;;4850598;29;20053;-77
2024/01/21 04:16:28;;;;;;;8.95;1.45;;;;;;;;;;4849932;29;20057;-77
2024/01/21 04:18:59;;;;;;;18.00;1.52;;;;;;;;;;4850579;29;20417;-76
2024/01/21 04:21:29;;;;;;;8.25;1.48;;;;;;;;;;4848866;29;20104;-77
2024/01/21 04:24:02;;;;;;;11.52;1.30;;;;;;;;;;4850530;29;20416;-77
2024/01/21 04:26:32;;;;;;;8.10;1.35;;;;;;;;;;4850802;29;20053;-77
2024/01/21 04:29:04;;;;;;;9.35;1.55;;;;;;;;;;4851002;29;20045;-78
2024/01/21 04:31:35;;;;;;;9.70;1.27;;;;;;;;;;4849637;29;20064;-76
2024/01/21 04:34:05;;;;;;;7.95;1.02;;;;;;;;;;4850445;29;20045;-77
2024/01/21 04:36:35;;;;;;;9.13;1.30;;;;;;;;;;4850665;29;20501;-76
2024/01/21 04:39:06;;;;;;;7.45;1.05;;;;;;;;;;4850801;29;20429;-77
2024/01/21 04:41:38;;;;;;;13.98;1.63;;;;;;;;;;4851378;29;20053;-77
2024/01/21 04:44:09;;;;;;;10.25;1.75;;;;;;;;;;4850671;29;20054;-78
2024/01/21 04:46:39;;;;;;;14.02;1.30;;;;;;;;;;4850684;29;20061;-78
2024/01/21 04:49:10;;;;;;;12.07;1.38;;;;;;;;;;4850462;29;20064;-77
2024/01/21 04:51:44;;;;;;;5.53;1.10;;;;;;;;;;4850287;29;20053;-78
2024/01/21 04:54:14;;;;;;;14.35;1.27;;;;;;;;;;4850628;29;20068;-77
2024/01/21 04:56:45;;;;;;;7.82;1.30;;;;;;;;;;4849135;29;20422;-77
2024/01/21 04:59:15;;;;;;;11.05;1.38;;;;;;;;;;4850686;29;20514;-78
2024/01/21 05:01:50;;;;;;;8.60;1.00;;;;;;;;;;4850135;29;20057;-77
2024/01/21 05:04:21;;;;;;;5.13;1.00;;;;;;;;;;4850203;29;20046;-77
2024/01/21 05:06:53;;;;;;;5.32;1.15;;;;;;;;;;4850070;29;20049;-76
2024/01/21 05:09:22;;;;;;;13.27;1.45;;;;;;;;;;4850449;29;20421;-77
2024/01/21 05:11:54;;;;;;;7.90;1.05;;;;;;;;;;4850655;29;20045;-77
2024/01/21 05:14:26;;;;;;;11.55;1.23;;;;;;;;;;4849378;29;20520;-77
2024/01/21 05:16:57;;;;;;;6.82;1.10;;;;;;;;;;4848703;29;20049;-78
2024/01/21 05:19:27;;;;;;;10.40;1.30;;;;;;;;;;4850023;29;20429;-77
2024/01/21 05:21:58;;;;;;;8.52;1.42;;;;;;;;;;4850330;29;20885;-78
2024/01/21 05:24:30;;;;;;;5.32;1.23;;;;;;;;;;4848712;29;20057;-77
2024/01/21 05:27:01;;;;;;;9.93;1.35;;;;;;;;;;4850066;29;20498;-77
2024/01/21 05:29:32;;;;;;;20.17;1.75;;;;;;;;;;4850483;29;20053;-77
2024/01/21 05:32:06;;;;;;;6.55;1.20;;;;;;;;;;4849935;29;20049;-77
2024/01/21 05:34:39;;;;;;;10.27;1.30;;;;;;;;;;4849907;29;20395;-77
2024/01/21 05:37:10;;;;;;;9.80;1.52;;;;;;;;;;4848483;29;20070;-77
2024/01/21 05:39:40;;;;;;;9.40;1.33;;;;;;;;;;4850037;29;20045;-78
2024/01/21 05:42:10;;;;;;;11.10;1.23;;;;;;;;;;4849608;29;20057;-78
2024/01/21 05:44:41;;;;;;;4.18;1.00;;;;;;;;;;4849690;29;20056;-77
2024/01/21 05:47:14;;;;;;;9.48;1.85;;;;;;;;;;4849810;29;20529;-76
2024/01/21 05:49:44;;;;;;;12.50;1.50;;;;;;;;;;4849679;29;20532;-78
2024/01/21 05:52:15;;;;;;;13.52;1.38;;;;;;;;;;4849942;29;21119;-77
2024/01/21 05:54:48;;;;;;;15.65;1.38;;;;;;;;;;4849487;29;20600;-77
2024/01/21 05:57:20;;;;;;;8.48;1.48;;;;;;;;;;4849449;29;20054;-77
2024/01/21 05:59:50;;;;;;;9.63;1.10;;;;;;;;;;4849646;29;20498;-77
2024/01/21 06:02:20;;;;;;;14.32;1.20;;;;;;;;;;4850012;29;20053;-78
2024/01/21 06:04:50;;;;;;;17.15;1.48;;;;;;;;;;4849935;29;20060;-77
2024/01/21 06:07:22;;;;;;;12.77;1.42;;;;;;;;;;4850053;29;20049;-77
2024/01/21 06:09:53;;;;;;;9.05;1.45;;;;;;;;;;4853170;29;20069;-77
2024/01/21 06:12:23;;;;;;;11.73;1.30;;;;;;;;;;4853051;29;20054;-77
2024/01/21 06:14:53;;;;;;;10.93;1.50;;;;;;;;;;4852857;29;20045;-78
2024/01/21 06:17:24;;;;;;;10.60;1.52;;;;;;;;;;4852578;29;20053;-78
2024/01/21 06:19:56;;;;;;;9.38;1.20;;;;;;;;;;4852835;29;20619;-78
2024/01/21 06:22:28;;;;;;;10.20;1.55;;;;;;;;;;4853365;29;20060;-76
2024/01/21 06:24:59;;;;;;;10.18;1.20;;;;;;;;;;4853091;29;20061;-76
2024/01/21 06:27:29;;;;;;;14.15;1.65;;;;;;;;;;4851632;29;20414;-75
2024/01/21 06:30:12;;;;;;;11.80;1.35;;;;;;;;;;4852837;29;20083;-76
2024/01/21 06:32:43;;;;;;;7.35;1.30;;;;;;;;;;4852994;29;20854;-76
2024/01/21 06:35:28;;;;;;;9.40;1.58;;;;;;;;;;4852914;29;20394;-77
2024/01/21 06:37:59;;;;;;;12.43;1.75;;;;;;;;;;4852764;29;20096;-75
2024/01/21 06:40:29;;;;;;;7.80;1.40;;;;;;;;;;4853370;29;20056;-75
2024/01/21 06:43:00;;;;;;;8.98;1.25;;;;;;;;;;4852679;29;20057;-76
2024/01/21 06:45:31;;;;;;;12.73;1.60;;;;;;;;;;4852549;29;20053;-77
2024/01/21 06:48:01;;;;;;;7.85;1.42;;;;;;;;;;4852108;29;20062;-78
2024/01/21 06:50:31;;;;;;;10.15;1.60;;;;;;;;;;4852018;29;20061;-75
2024/01/21 06:53:01;;;;;;;10.77;1.65;;;;;;;;;;4852287;29;20052;-77
2024/01/21 06:55:35;;;;;;;8.68;1.20;;;;;;;;;;4851306;29;20501;-78
2024/01/21 06:58:07;;;;;;;10.23;1.30;;;;;;;;;;4853354;29;20735;-77
2024/01/21 07:00:39;;;;;;;16.83;1.80;;;;;;;;;;4852185;29;20049;-79
2024/01/21 07:03:09;;;;;;;12.98;1.48;;;;;;;;;;4852170;29;20518;-77
2024/01/21 07:05:40;;;;;;;6.32;1.00;;;;;;;;;;4852689;29;20681;-78
2024/01/21 07:08:11;;;;;;;8.35;1.10;;;;;;;;;;4852488;29;20053;-77
2024/01/21 07:10:42;;;;;;;14.75;1.50;;;;;;;;;;4852134;29;20084;-78
2024/01/21 07:13:12;;;;;;;7.13;1.05;;;;;;;;;;4852553;29;20064;-77
2024/01/21 07:15:43;;;;;;;8.40;1.30;;;;;;;;;;4851987;29;20107;-77
2024/01/21 07:18:14;;;;;;;12.27;1.60;;;;;;;;;;4851924;29;20057;-77
2024/01/21 07:20:44;;;;;;;9.60;1.30;;;;;;;;;;4850914;29;20080;-77
2024/01/21 07:23:14;;;;;;;11.35;1.20;;;;;;;;;;4851384;29;20086;-78
2024/01/21 07:25:47;;;;;;;8.50;1.35;;;;;;;;;;4852044;29;20065;-77
2024/01/21 07:28:19;;;;;;;6.68;1.20;;;;;;;;;;4851513;29;20056;-79
2024/01/21 07:30:49;;;;;;;9.93;1.42;;;;;;;;;;4858255;29;20057;-76
2024/01/21 07:33:20;;;;;;;12.43;1.90;;;;;;;;;;4860066;29;20049;-77
2024/01/21 07:35:51;;;;;;;8.95;1.60;;;;;;;;;;4851910;29;20132;-78
2024/01/21 07:38:22;;;;;;;6.22;0.93;;;;;;;;;;4851931;29;20045;-77
2024/01/21 07:40:53;;;;;;;19.85;2.20;;;;;;;;;;4852097;29;20053;-77
2024/01/21 07:43:23;;;;;;;15.32;1.52;;;;;;;;;;4851745;29;20053;-78
2024/01/21 07:45:54;;;;;;;6.15;1.08;;;;;;;;;;4851957;29;20434;-77
2024/01/21 07:48:25;;;;;;;4.20;1.05;;;;;;;;;;4851551;29;20053;-78
2024/01/21 07:50:57;;;;;;;12.73;1.38;;;;;;;;;;4834939;29;20069;-77
2024/01/21 07:53:27;;;;;;;12.52;1.92;;;;;;;;;;4851352;29;20057;-77
2024/01/21 07:55:58;;;;;;;17.10;1.55;;;;;;;;;;4851287;29;20057;-78
2024/01/21 07:58:28;;;;;;;12.68;1.40;;;;;;;;;;4851144;29;20064;-76
2024/01/21 08:00:59;;;;;;;11.75;1.40;;;;;;;;;;4851047;29;20068;-78
2024/01/21 08:03:29;;;;;;;9.98;1.35;;;;;;;;;;4851450;29;20509;-78
2024/01/21 08:05:59;;;;;;;12.57;1.48;;;;;;;;;;4850777;29;20050;-76
2024/01/21 08:08:31;;;;;;;16.20;1.17;;;;;;;;;;4851560;29;20132;-77
2024/01/21 08:11:04;;;;;;;9.00;1.08;;;;;;;;;;4851076;29;20064;-78
2024/01/21 08:13:38;;;;;;;12.05;1.48;;;;;;;;;;4851089;29;20054;-76
2024/01/21 08:16:09;;;;;;;13.27;1.15;;;;;;;;;;4849495;29;20402;-76
2024/01/21 08:18:39;;;;;;;10.70;1.23;;;;;;;;;;4851256;29;20049;-77
2024/01/21 08:21:10;;;;;;;10.55;1.80;;;;;;;;;;4850804;29;20088;-78
2024/01/21 08:23:41;;;;;;;10.48;1.20;;;;;;;;;;4851005;29;20057;-77
2024/01/21 08:26:13;;;;;;;9.98;1.33;;;;;;;;;;4850678;29;20048;-77
2024/01/21 08:28:43;;;;;;;7.85;1.30;;;;;;;;;;4849137;29;20053;-77
2024/01/21 08:31:17;;;;;;;12.48;1.15;;;;;;;;;;4850389;29;20521;-78
2024/01/21 08:33:49;;;;;;;6.97;1.38;;;;;;;;;;4851082;29;20064;-77
2024/01/21 08:36:20;;;;;;;15.27;1.75;;;;;;;;;;4851407;29;20088;-79
2024/01/21 08:38:51;;;;;;;11.60;1.30;;;;;;;;;;4850369;29;20065;-77
2024/01/21 08:41:23;;;;;;;16.77;1.20;;;;;;;;;;4850089;29;20421;-76
2024/01/21 08:44:02;;;;;;;10.35;1.30;;;;;;;;;;4849871;29;20061;-78
2024/01/21 08:46:39;;;;;;;8.75;1.10;;;;;;;;;;4850135;29;20513;-78
2024/01/21 08:49:17;;;;;;;15.48;1.70;;;;;;;;;;4850263;29;20429;-76
2024/01/21 08:51:50;;;;;;;9.85;1.13;;;;;;;;;;4849685;29;20049;-79
2024/01/21 08:54:20;;;;;;;4.75;1.38;;;;;;;;;;4850582;29;20053;-78
2024/01/21 08:56:51;;;;;;;10.70;1.65;;;;;;;;;;4850723;29;20084;-79
2024/01/21 08:59:22;;;;;;;11.07;1.42;;;;;;;;;;4849086;29;20053;-79
2024/01/21 09:01:54;;;;;;;16.13;2.17;;;;;;;;;;4850422;29;20055;-79
2024/01/21 09:04:25;;;;;;;14.88;1.20;;;;;;;;;;4849793;29;20058;-78
2024/01/21 09:06:55;;;;;;;11.27;1.45;;;;;;;;;;4833757;29;20054;-77
2024/01/21 09:09:25;;;;;;;19.02;1.88;;;;;;;;;;4848987;29;20053;-79
2024/01/21 09:11:57;;;;;;;13.35;1.52;;;;;;;;;;4850175;29;20060;-77
2024/01/21 09:14:28;;;;;;;9.05;1.25;;;;;;;;;;4849965;29;20046;-79
2024/01/21 09:16:58;;;;;;;10.10;1.30;;;;;;;;;;4850331;29;20418;-78
2024/01/21 09:19:28;;;;;;;14.80;1.33;;;;;;;;;;4850181;29;20512;-77
2024/01/21 09:21:59;;;;;;;8.88;1.58;;;;;;;;;;4849148;29;20061;-77
2024/01/21 09:24:30;;;;;;;9.85;1.52;;;;;;;;;;4850200;29;20525;-77
2024/01/21 09:27:02;;;;;;;10.57;1.65;;;;;;;;;;4849494;29;20056;-77
2024/01/21 09:29:32;;;;;;;10.65;1.30;;;;;;;;;;4848553;29;20069;-77
2024/01/21 09:32:02;;;;;;;8.55;1.40;;;;;;;;;;4834660;29;20081;-78
2024/01/21 09:34:33;;;;;;;7.93;1.05;;;;;;;;;;4831118;29;20053;-77
2024/01/21 09:37:05;;;;;;;17.92;1.52;;;;;;;;;;4831050;29;20792;-75
2024/01/21 09:39:37;;;;;;;9.40;1.05;;;;;;;;;;4815044;29;20536;-77
2024/01/21 09:42:08;;;;;;;12.52;1.58;;;;;;;;;;4831132;29;20046;-77
2024/01/21 09:44:38;;;;;;;12.98;1.40;;;;;;;;;;4834450;29;20066;-78
2024/01/21 09:47:12;;;;;;;12.65;1.10;;;;;;;;;;4835193;29;20054;-77
2024/01/21 09:49:51;;;;;;;10.55;1.35;;;;;;;;;;4833255;29;20053;-77
2024/01/21 09:52:29;;;;;;;9.32;1.33;;;;;;;;;;4834466;29;20053;-77
2024/01/21 09:55:00;;;;;;;10.30;1.00;;;;;;;;;;4835152;29;20054;-78
2024/01/21 09:57:47;;;;;;;8.13;1.17;;;;;;;;;;4835802;29;20046;-75
2024/01/21 10:00:25;;;;;;;12.27;1.25;;;;;;;;;;4833893;29;20048;-78
2024/01/21 10:02:55;;;;;;;16.30;1.55;;;;;;;;;;4835107;29;20061;-77
2024/01/21 10:05:26;;;;;;;12.27;1.35;;;;;;;;;;4834678;29;20422;-77
2024/01/21 10:07:57;;;;;;;13.73;1.50;;;;;;;;;;4834595;29;20061;-77
2024/01/21 10:10:29;;;;;;;9.00;1.38;;;;;;;;;;4834572;29;20065;-79
2024/01/21 10:12:59;;;;;;;9.73;1.20;;;;;;;;;;4834894;29;20054;-79
2024/01/21 10:15:34;;;;;;;8.13;1.13;;;;;;;;;;4834440;29;20395;-77
2024/01/21 10:18:05;;;;;;;6.43;1.05;;;;;;;;;;4834772;29;20054;-77
2024/01/21 10:20:37;;;;;;;11.95;1.50;;;;;;;;;;4834432;29;20060;-78
2024/01/21 10:23:10;;;;;;;13.18;1.90;;;;;;;;;;4834190;29;20544;-77
2024/01/21 10:25:44;;;;;;;7.10;1.17;;;;;;;;;;4834204;29;20042;-77
2024/01/21 10:28:18;;;;;;;4.40;1.08;;;;;;;;;;4834885;29;20056;-77
2024/01/21 10:30:49;;;;;;;5.93;0.95;;;;;;;;;;4834625;29;20054;-76
2024/01/21 10:33:20;;;;;;;12.30;1.23;;;;;;;;;;4834553;29;20060;-76
2024/01/21 10:35:52;;;;;;;8.20;1.52;;;;;;;;;;4834292;29;20049;-77
2024/01/21 10:38:27;;;;;;;12.80;1.35;;;;;;;;;;4833742;29;20049;-78
2024/01/21 10:41:00;;;;;;;9.95;1.15;;;;;;;;;;4833159;29;20515;-77
2024/01/21 10:43:35;;;;;;;7.35;0.82;;;;;;;;;;4834277;29;20081;-77
2024/01/21 10:46:07;;;;;;;8.02;1.20;;;;;;;;;;4834319;29;20049;-77
2024/01/21 10:48:39;;;;;;;9.20;1.35;;;;;;;;;;4834745;29;20054;-77
2024/01/21 10:51:11;;;;;;;5.30;1.30;;;;;;;;;;4834527;29;20058;-74
2024/01/21 10:53:42;;;;;;;5.60;0.90;;;;;;;;;;4834174;29;20081;-75
2024/01/21 10:56:14;;;;;;;7.90;1.17;;;;;;;;;;4832613;29;20042;-76
2024/01/21 10:58:44;;;;;;;9.25;0.82;;;;;;;;;;4818450;29;20046;-76
2024/01/21 11:01:16;;;;;;;8.57;1.55;;;;;;;;;;4833893;29;20065;-75
2024/01/21 11:03:50;;;;;;;10.13;1.23;;;;;;;;;;4833983;29;20065;-75
2024/01/21 11:06:22;;;;;;;7.80;1.05;;;;;;;;;;4817691;29;20077;-75
2024/01/21 11:08:55;;;;;;;11.63;1.10;;;;;;;;;;4834206;29;20049;-75
2024/01/21 11:11:27;;;;;;;10.00;1.98;;;;;;;;;;4833643;29;20058;-76
2024/01/21 11:13:58;;;;;;;5.55;1.00;;;;;;;;;;4833674;29;20064;-76
2024/01/21 11:16:30;;;;;;;11.18;1.13;;;;;;;;;;4833785;29;20498;-76
2024/01/21 11:19:07;;;;;;;6.88;1.10;;;;;;;;;;4834266;29;20050;-73
2024/01/21 11:21:44;;;;;;;9.40;1.08;;;;;;;;;;4832956;29;20062;-78
2024/01/21 11:24:15;;;;;;;5.78;1.05;;;;;;;;;;4833897;29;20581;-74
2024/01/21 11:26:47;;;;;;;7.28;1.27;;;;;;;;;;4833952;29;20046;-75
2024/01/21 11:29:32;;;;;;;5.97;1.00;;;;;;;;;;4833375;29;20053;-75
2024/01/21 11:32:04;;;;;;;8.13;1.00;;;;;;;;;;4832883;29;20081;-75
2024/01/21 11:34:38;;;;;;;6.20;0.63;;;;;;;;;;4833366;29;20054;-74
2024/01/21 11:37:12;;;;;;;7.80;1.35;;;;;;;;;;4833924;29;20050;-76
2024/01/21 11:39:44;;;;;;;6.25;1.10;;;;;;;;;;4833582;29;20053;-76
2024/01/21 11:42:15;;;;;;;6.25;0.93;;;;;;;;;;4833428;29;20053;-76
2024/01/21 11:44:45;;;;;;;9.25;1.30;;;;;;;;;;4832599;29;20062;-75
2024/01/21 11:47:17;;;;;;;12.02;1.33;;;;;;;;;;4833381;29;20061;-77
2024/01/21 11:49:47;;;;;;;8.32;1.77;;;;;;;;;;4833118;29;20049;-76
2024/01/21 11:52:22;;;;;;;8.68;0.95;;;;;;;;;;4816273;29;20066;-77
2024/01/21 11:54:53;;;;;;;9.35;1.30;;;;;;;;;;4833433;29;20532;-77
2024/01/21 11:57:23;;;;;;;7.50;1.10;;;;;;;;;;4833005;29;20054;-78
2024/01/21 11:59:55;;;;;;;10.30;1.58;;;;;;;;;;4832696;29;20060;-76
2024/01/21 12:02:26;;;;;;;8.00;1.63;;;;;;;;;;4833206;29;20049;-78
2024/01/21 12:04:57;;;;;;;10.60;1.27;;;;;;;;;;4831729;29;20065;-77
2024/01/21 12:07:28;;;;;;;6.10;0.95;;;;;;;;;;4832443;29;20053;-78
2024/01/21 12:09:59;;;;;;;10.27;1.25;;;;;;;;;;4832594;29;20050;-76
2024/01/21 12:12:30;;;;;;;10.32;1.20;;;;;;;;;;4832580;29;20526;-77
2024/01/21 12:15:02;;;;;;;10.35;1.50;;;;;;;;;;4831186;29;20080;-77
2024/01/21 12:17:32;;;;;;;7.82;1.15;;;;;;;;;;4831729;29;20057;-76
2024/01/21 12:20:04;;;;;;;10.18;1.15;;;;;;;;;;4832327;29;20061;-77
2024/01/21 12:22:45;;;;;;;7.40;1.00;;;;;;;;;;4832558;29;20054;-79
2024/01/21 12:25:18;;;;;;;11.45;1.15;;;;;;;;;;4833021;29;20406;-76
2024/01/21 12:27:57;;;;;;;9.77;1.35;;;;;;;;;;4832841;29;20054;-76
2024/01/21 12:30:27;;;;;;;8.23;1.63;;;;;;;;;;4832563;29;20054;-76
2024/01/21 12:32:59;;;;;;;6.30;0.95;;;;;;;;;;4832692;29;20053;-77
2024/01/21 12:35:31;;;;;;;8.02;1.13;;;;;;;;;;4832042;29;20049;-76
2024/01/21 12:38:02;;;;;;;8.82;1.38;;;;;;;;;;4832616;29;20447;-77
2024/01/21 12:40:31;;;;;;;9.20;1.45;;;;;;;;;;4831591;29;20061;-77
2024/01/21 12:43:03;;;;;;;6.93;1.55;;;;;;;;;;4837461;29;20064;-76
2024/01/21 12:45:34;;;;;;;6.40;1.05;;;;;;;;;;4833156;29;20069;-78
2024/01/21 12:48:06;;;;;;;7.30;1.30;;;;;;;;;;4832099;29;20596;-77
2024/01/21 12:50:36;;;;;;;10.05;1.10;;;;;;;;;;4831701;29;20502;-77
2024/01/21 12:53:08;;;;;;;6.32;1.15;;;;;;;;;;4831983;29;20076;-76
2024/01/21 12:55:39;;;;;;;7.45;1.05;;;;;;;;;;4832363;29;20053;-77
2024/01/21 12:58:12;;;;;;;6.65;1.27;;;;;;;;;;4831899;29;20058;-76
2024/01/21 13:00:43;;;;;;;7.25;1.50;;;;;;;;;;4832107;29;20061;-77
2024/01/21 13:03:15;;;;;;;8.85;1.15;;;;;;;;;;4831726;29;20535;-78
2024/01/21 13:05:46;;;;;;;12.05;1.30;;;;;;;;;;4831302;29;20057;-76
2024/01/21 13:08:17;;;;;;;9.75;1.30;;;;;;;;;;4815371;29;20065;-77
2024/01/21 13:10:47;;;;;;;8.70;1.73;;;;;;;;;;4831488;29;20057;-76
2024/01/21 13:13:18;;;;;;;10.45;1.52;;;;;;;;;;4831966;29;21167;-77
2024/01/21 13:15:49;;;;;;;9.10;1.35;;;;;;;;;;4831520;29;20065;-77
2024/01/21 13:18:19;;;;;;;6.90;1.10;;;;;;;;;;4830708;29;20054;-77
2024/01/21 13:20:50;;;;;;;6.55;1.10;;;;;;;;;;4830151;29;20429;-79
2024/01/21 13:23:22;;;;;;;4.65;0.95;;;;;;;;;;4828962;29;20061;-77
2024/01/21 13:25:53;;;;;;;10.43;1.48;;;;;;;;;;4829141;29;20052;-77
2024/01/21 13:30:55;;;;;;;8.50;1.10;;;;;;;;;;4831034;29;20497;-77
2024/01/21 13:33:28;;;;;;;9.60;0.95;;;;;;;;;;4831136;29;20057;-78
2024/01/21 13:35:59;;;;;;;9.57;1.23;;;;;;;;;;4831140;29;20048;-76
2024/01/21 13:38:32;;;;;;;10.85;1.30;;;;;;;;;;4831357;29;20050;-79
2024/01/21 13:41:02;;;;;;;4.63;1.00;;;;;;;;;;4831495;29;20084;-77
2024/01/21 13:43:35;;;;;;;6.50;1.30;;;;;;;;;;4830979;29;20062;-77
2024/01/21 13:46:07;;;;;;;6.85;1.30;;;;;;;;;;4831620;29;20414;-76
2024/01/21 13:48:38;;;;;;;10.85;1.50;;;;;;;;;;4831276;29;20054;-80
2024/01/21 13:51:09;;;;;;;5.78;0.70;;;;;;;;;;4831409;29;20442;-81
2024/01/21 13:53:41;;;;;;;7.20;0.90;;;;;;;;;;4830935;29;20069;-78
2024/01/21 13:56:14;;;;;;;6.95;1.08;;;;;;;;;;4813594;29;20062;-77
2024/01/21 13:58:45;;;;;;;8.82;1.15;;;;;;;;;;4831133;29;20062;-76
2024/01/21 14:01:15;;;;;;;7.78;1.23;;;;;;;;;;4830844;29;20422;-79
2024/01/21 14:03:47;;;;;;;9.88;1.20;;;;;;;;;;4831220;29;20054;-77
2024/01/21 14:06:19;;;;;;;8.05;1.30;;;;;;;;;;4830145;29;20066;-78
2024/01/21 14:08:49;;;;;;;6.03;1.00;;;;;;;;;;4830551;29;20058;-78
2024/01/21 14:11:20;;;;;;;5.82;0.88;;;;;;;;;;4830483;29;20053;-78
2024/01/21 14:13:51;;;;;;;8.82;1.17;;;;;;;;;;4829680;29;20424;-76
2024/01/21 14:16:22;;;;;;;7.72;0.90;;;;;;;;;;4831280;29;20081;-76
2024/01/21 14:18:54;;;;;;;6.78;1.20;;;;;;;;;;4829746;29;20050;-76
2024/01/21 14:21:24;;;;;;;6.00;0.95;;;;;;;;;;4831726;29;20061;-76
2024/01/21 14:23:56;;;;;;;8.10;1.13;;;;;;;;;;4831676;29;20065;-76
2024/01/21 14:26:32;;;;;;;5.10;0.80;;;;;;;;;;4830786;29;20050;-80
2024/01/21 14:29:03;;;;;;;5.90;1.17;;;;;;;;;;4831763;29;20061;-77
2024/01/21 14:31:34;;;;;;;6.45;0.90;;;;;;;;;;4833396;29;20068;-76
2024/01/21 14:34:05;;;;;;;5.53;1.10;;;;;;;;;;4833728;29;20050;-78
2024/01/21 14:36:36;;;;;;;9.80;1.38;;;;;;;;;;4834051;29;20426;-78
2024/01/21 14:39:07;;;;;;;8.13;1.05;;;;;;;;;;4833917;29;20057;-76
2024/01/21 14:41:37;;;;;;;7.00;1.00;;;;;;;;;;4833912;29;20057;-75
2024/01/21 14:44:09;;;;;;;7.68;1.42;;;;;;;;;;4833852;29;20065;-76
2024/01/21 14:46:42;;;;;;;9.32;1.20;;;;;;;;;;4834445;29;20041;-75
2024/01/21 14:49:15;;;;;;;5.63;1.17;;;;;;;;;;4833748;29;20073;-75
2024/01/21 14:51:45;;;;;;;5.45;1.15;;;;;;;;;;4834405;29;20439;-77
2024/01/21 14:54:16;;;;;;;4.22;0.73;;;;;;;;;;4834171;29;20054;-76
2024/01/21 14:56:46;;;;;;;7.53;1.23;;;;;;;;;;4833616;29;20053;-76
2024/01/21 14:59:18;;;;;;;9.43;0.90;;;;;;;;;;4833963;29;20050;-77
2024/01/21 15:01:48;;;;;;;6.57;1.02;;;;;;;;;;4833685;29;20042;-76
2024/01/21 15:04:18;;;;;;;4.03;0.80;;;;;;;;;;4833507;29;20054;-76
2024/01/21 15:06:48;;;;;;;8.88;1.10;;;;;;;;;;4833771;29;20050;-76